sensor_id;sensor_type;location;lat;lon;timestamp;P1;durP1;ratioP1;P2;durP2;ratioP2
20559;SDS011;10438;51.454;6.718;2023-07-22T00:00:04;14.90;;;7.63;;
20559;SDS011;10438;51.454;6.718;2023-07-22T00:02:31;12.63;;;7.80;;
20559;SDS011;10438;51.454;6.718;2023-07-22T00:04:56;13.67;;;8.03;;
20559;SDS011;10438;51.454;6.718;2023-07-22T00:07:22;20.53;;;9.33;;
20559;SDS011;10438;51.454;6.718;2023-07-22T00:09:48;19.63;;;9.10;;
20559;SDS011;10438;51.454;6.718;2023-07-22T00:12:15;12.83;;;8.53;;
20559;SDS011;10438;51.454;6.718;2023-07-22T00:14:40;15.60;;;8.63;;
20559;SDS011;10438;51.454;6.718;2023-07-22T00:17:06;12.97;;;7.83;;
20559;SDS011;10438;51.454;6.718;2023-07-22T00:19:32;11.60;;;7.47;;
20559;SDS011;10438;51.454;6.718;2023-07-22T00:21:58;14.70;;;8.13;;
20559;SDS011;10438;51.454;6.718;2023-07-22T00:24:24;15.60;;;7.97;;
20559;SDS011;10438;51.454;6.718;2023-07-22T00:26:50;13.00;;;7.63;;
20559;SDS011;10438;51.454;6.718;2023-07-22T00:29:16;11.80;;;7.67;;
20559;SDS011;10438;51.454;6.718;2023-07-22T00:31:42;16.90;;;8.33;;
20559;SDS011;10438;51.454;6.718;2023-07-22T00:34:07;13.35;;;7.82;;
20559;SDS011;10438;51.454;6.718;2023-07-22T00:36:34;15.83;;;7.83;;
20559;SDS011;10438;51.454;6.718;2023-07-22T00:38:59;13.93;;;8.17;;
20559;SDS011;10438;51.454;6.718;2023-07-22T00:41:26;13.70;;;7.77;;
20559;SDS011;10438;51.454;6.718;2023-07-22T00:43:52;13.67;;;7.70;;
20559;SDS011;10438;51.454;6.718;2023-07-22T00:46:17;13.17;;;7.93;;
20559;SDS011;10438;51.454;6.718;2023-07-22T00:48:43;13.73;;;8.33;;
20559;SDS011;10438;51.454;6.718;2023-07-22T00:51:09;13.20;;;7.77;;
20559;SDS011;10438;51.454;6.718;2023-07-22T00:53:34;12.00;;;7.70;;
20559;SDS011;10438;51.454;6.718;2023-07-22T00:56:00;14.33;;;8.07;;
20559;SDS011;10438;51.454;6.718;2023-07-22T00:58:25;15.27;;;8.30;;
20559;SDS011;10438;51.454;6.718;2023-07-22T01:00:51;16.93;;;8.30;;
20559;SDS011;10438;51.454;6.718;2023-07-22T01:03:17;14.20;;;7.90;;
20559;SDS011;10438;51.454;6.718;2023-07-22T01:05:44;14.13;;;8.27;;
20559;SDS011;10438;51.454;6.718;2023-07-22T01:08:12;15.50;;;8.70;;
20559;SDS011;10438;51.454;6.718;2023-07-22T01:10:38;15.50;;;7.67;;
20559;SDS011;10438;51.454;6.718;2023-07-22T01:13:04;15.87;;;8.57;;
20559;SDS011;10438;51.454;6.718;2023-07-22T01:15:30;13.87;;;8.83;;
20559;SDS011;10438;51.454;6.718;2023-07-22T01:17:56;13.07;;;8.43;;
20559;SDS011;10438;51.454;6.718;2023-07-22T01:20:26;13.53;;;7.87;;
20559;SDS011;10438;51.454;6.718;2023-07-22T01:22:55;15.07;;;8.67;;
20559;SDS011;10438;51.454;6.718;2023-07-22T01:25:21;15.83;;;8.43;;
20559;SDS011;10438;51.454;6.718;2023-07-22T01:27:47;13.40;;;8.67;;
20559;SDS011;10438;51.454;6.718;2023-07-22T01:30:14;14.67;;;8.77;;
20559;SDS011;10438;51.454;6.718;2023-07-22T01:32:39;15.57;;;8.03;;
20559;SDS011;10438;51.454;6.718;2023-07-22T01:35:05;12.87;;;8.07;;
20559;SDS011;10438;51.454;6.718;2023-07-22T01:37:32;13.93;;;8.50;;
20559;SDS011;10438;51.454;6.718;2023-07-22T01:39:59;13.63;;;8.80;;
20559;SDS011;10438;51.454;6.718;2023-07-22T01:42:25;15.23;;;8.10;;
20559;SDS011;10438;51.454;6.718;2023-07-22T01:44:50;10.87;;;7.67;;
20559;SDS011;10438;51.454;6.718;2023-07-22T01:47:16;12.97;;;8.40;;
20559;SDS011;10438;51.454;6.718;2023-07-22T01:49:41;15.20;;;8.93;;
20559;SDS011;10438;51.454;6.718;2023-07-22T01:52:07;12.50;;;8.73;;
20559;SDS011;10438;51.454;6.718;2023-07-22T01:54:32;15.33;;;9.13;;
20559;SDS011;10438;51.454;6.718;2023-07-22T01:56:58;14.80;;;8.23;;
20559;SDS011;10438;51.454;6.718;2023-07-22T01:59:24;13.97;;;8.03;;
20559;SDS011;10438;51.454;6.718;2023-07-22T02:01:50;16.17;;;8.17;;
20559;SDS011;10438;51.454;6.718;2023-07-22T02:04:16;13.87;;;8.57;;
20559;SDS011;10438;51.454;6.718;2023-07-22T02:06:42;13.17;;;8.67;;
20559;SDS011;10438;51.454;6.718;2023-07-22T02:09:07;13.10;;;8.50;;
20559;SDS011;10438;51.454;6.718;2023-07-22T02:11:36;12.60;;;8.20;;
20559;SDS011;10438;51.454;6.718;2023-07-22T02:14:01;11.83;;;8.50;;
20559;SDS011;10438;51.454;6.718;2023-07-22T02:16:28;15.00;;;8.23;;
20559;SDS011;10438;51.454;6.718;2023-07-22T02:18:54;13.17;;;8.17;;
20559;SDS011;10438;51.454;6.718;2023-07-22T02:21:19;12.90;;;8.00;;
20559;SDS011;10438;51.454;6.718;2023-07-22T02:23:45;12.90;;;8.30;;
20559;SDS011;10438;51.454;6.718;2023-07-22T02:26:10;12.70;;;8.80;;
20559;SDS011;10438;51.454;6.718;2023-07-22T02:28:36;14.07;;;8.37;;
20559;SDS011;10438;51.454;6.718;2023-07-22T02:31:02;16.40;;;8.40;;
20559;SDS011;10438;51.454;6.718;2023-07-22T02:33:31;16.27;;;8.60;;
20559;SDS011;10438;51.454;6.718;2023-07-22T02:35:57;14.40;;;8.30;;
20559;SDS011;10438;51.454;6.718;2023-07-22T02:38:22;14.23;;;8.40;;
20559;SDS011;10438;51.454;6.718;2023-07-22T02:40:48;16.07;;;8.90;;
20559;SDS011;10438;51.454;6.718;2023-07-22T02:43:13;12.07;;;8.13;;
20559;SDS011;10438;51.454;6.718;2023-07-22T02:45:40;14.03;;;8.53;;
20559;SDS011;10438;51.454;6.718;2023-07-22T02:48:06;12.87;;;8.23;;
20559;SDS011;10438;51.454;6.718;2023-07-22T02:50:31;14.27;;;8.00;;
20559;SDS011;10438;51.454;6.718;2023-07-22T02:52:57;14.10;;;8.33;;
20559;SDS011;10438;51.454;6.718;2023-07-22T02:55:22;15.30;;;8.80;;
20559;SDS011;10438;51.454;6.718;2023-07-22T02:57:48;14.23;;;8.33;;
20559;SDS011;10438;51.454;6.718;2023-07-22T03:00:15;13.20;;;8.20;;
20559;SDS011;10438;51.454;6.718;2023-07-22T03:02:51;15.23;;;9.40;;
20559;SDS011;10438;51.454;6.718;2023-07-22T03:05:17;16.63;;;9.93;;
20559;SDS011;10438;51.454;6.718;2023-07-22T03:07:44;16.70;;;8.87;;
20559;SDS011;10438;51.454;6.718;2023-07-22T03:10:09;14.80;;;8.27;;
20559;SDS011;10438;51.454;6.718;2023-07-22T03:12:35;20.37;;;8.53;;
20559;SDS011;10438;51.454;6.718;2023-07-22T03:15:02;14.70;;;7.83;;
20559;SDS011;10438;51.454;6.718;2023-07-22T03:17:29;18.77;;;8.70;;
20559;SDS011;10438;51.454;6.718;2023-07-22T03:19:55;17.43;;;8.00;;
20559;SDS011;10438;51.454;6.718;2023-07-22T03:22:20;14.00;;;8.40;;
20559;SDS011;10438;51.454;6.718;2023-07-22T03:24:46;19.03;;;8.77;;
20559;SDS011;10438;51.454;6.718;2023-07-22T03:27:12;17.27;;;7.93;;
20559;SDS011;10438;51.454;6.718;2023-07-22T03:29:39;15.20;;;7.87;;
20559;SDS011;10438;51.454;6.718;2023-07-22T03:32:05;15.27;;;7.70;;
20559;SDS011;10438;51.454;6.718;2023-07-22T03:34:31;18.20;;;7.90;;
20559;SDS011;10438;51.454;6.718;2023-07-22T03:36:57;15.53;;;7.87;;
20559;SDS011;10438;51.454;6.718;2023-07-22T03:39:23;14.83;;;7.40;;
20559;SDS011;10438;51.454;6.718;2023-07-22T03:41:49;16.47;;;8.77;;
20559;SDS011;10438;51.454;6.718;2023-07-22T03:44:15;17.83;;;8.70;;
20559;SDS011;10438;51.454;6.718;2023-07-22T03:46:40;13.97;;;7.87;;
20559;SDS011;10438;51.454;6.718;2023-07-22T03:49:06;22.37;;;7.40;;
20559;SDS011;10438;51.454;6.718;2023-07-22T03:51:31;14.23;;;7.80;;
20559;SDS011;10438;51.454;6.718;2023-07-22T03:53:58;16.93;;;7.67;;
20559;SDS011;10438;51.454;6.718;2023-07-22T03:56:23;13.97;;;7.93;;
20559;SDS011;10438;51.454;6.718;2023-07-22T03:58:52;15.03;;;7.87;;
20559;SDS011;10438;51.454;6.718;2023-07-22T04:01:17;16.23;;;7.80;;
20559;SDS011;10438;51.454;6.718;2023-07-22T04:03:43;15.67;;;8.83;;
20559;SDS011;10438;51.454;6.718;2023-07-22T04:06:09;11.53;;;7.53;;
20559;SDS011;10438;51.454;6.718;2023-07-22T04:08:34;16.30;;;8.27;;
20559;SDS011;10438;51.454;6.718;2023-07-22T04:11:00;15.93;;;8.03;;
20559;SDS011;10438;51.454;6.718;2023-07-22T04:13:26;14.27;;;8.77;;
20559;SDS011;10438;51.454;6.718;2023-07-22T04:15:52;14.53;;;8.37;;
20559;SDS011;10438;51.454;6.718;2023-07-22T04:18:18;16.93;;;8.10;;
20559;SDS011;10438;51.454;6.718;2023-07-22T04:20:45;14.07;;;7.97;;
20559;SDS011;10438;51.454;6.718;2023-07-22T04:23:11;14.03;;;7.83;;
20559;SDS011;10438;51.454;6.718;2023-07-22T04:25:43;15.03;;;7.43;;
20559;SDS011;10438;51.454;6.718;2023-07-22T04:28:10;14.70;;;7.67;;
20559;SDS011;10438;51.454;6.718;2023-07-22T04:30:36;13.37;;;7.23;;
20559;SDS011;10438;51.454;6.718;2023-07-22T04:33:02;12.67;;;7.43;;
20559;SDS011;10438;51.454;6.718;2023-07-22T04:35:36;17.70;;;7.97;;
20559;SDS011;10438;51.454;6.718;2023-07-22T04:38:03;16.07;;;7.57;;
20559;SDS011;10438;51.454;6.718;2023-07-22T04:40:29;13.13;;;7.73;;
20559;SDS011;10438;51.454;6.718;2023-07-22T04:42:55;19.13;;;8.40;;
20559;SDS011;10438;51.454;6.718;2023-07-22T04:45:21;15.63;;;8.03;;
20559;SDS011;10438;51.454;6.718;2023-07-22T04:47:48;16.40;;;8.20;;
20559;SDS011;10438;51.454;6.718;2023-07-22T04:50:15;19.30;;;8.30;;
20559;SDS011;10438;51.454;6.718;2023-07-22T04:52:42;15.00;;;8.10;;
20559;SDS011;10438;51.454;6.718;2023-07-22T04:55:10;11.97;;;7.47;;
20559;SDS011;10438;51.454;6.718;2023-07-22T04:57:36;14.07;;;8.07;;
20559;SDS011;10438;51.454;6.718;2023-07-22T05:00:03;15.07;;;7.47;;
20559;SDS011;10438;51.454;6.718;2023-07-22T05:02:29;19.23;;;7.73;;
20559;SDS011;10438;51.454;6.718;2023-07-22T05:04:57;18.53;;;8.30;;
20559;SDS011;10438;51.454;6.718;2023-07-22T05:07:23;17.60;;;7.57;;
20559;SDS011;10438;51.454;6.718;2023-07-22T05:09:49;18.10;;;8.03;;
20559;SDS011;10438;51.454;6.718;2023-07-22T05:12:15;15.77;;;8.40;;
20559;SDS011;10438;51.454;6.718;2023-07-22T05:14:40;14.53;;;8.00;;
20559;SDS011;10438;51.454;6.718;2023-07-22T05:17:06;19.13;;;8.03;;
20559;SDS011;10438;51.454;6.718;2023-07-22T05:19:31;15.97;;;8.67;;
20559;SDS011;10438;51.454;6.718;2023-07-22T05:21:57;15.73;;;7.67;;
20559;SDS011;10438;51.454;6.718;2023-07-22T05:24:22;13.43;;;7.43;;
20559;SDS011;10438;51.454;6.718;2023-07-22T05:26:48;14.53;;;7.53;;
20559;SDS011;10438;51.454;6.718;2023-07-22T05:29:13;15.87;;;7.70;;
20559;SDS011;10438;51.454;6.718;2023-07-22T05:31:39;12.87;;;7.17;;
20559;SDS011;10438;51.454;6.718;2023-07-22T05:34:04;15.50;;;7.93;;
20559;SDS011;10438;51.454;6.718;2023-07-22T05:36:30;13.13;;;7.87;;
20559;SDS011;10438;51.454;6.718;2023-07-22T05:38:56;17.00;;;8.63;;
20559;SDS011;10438;51.454;6.718;2023-07-22T05:41:22;15.00;;;7.43;;
20559;SDS011;10438;51.454;6.718;2023-07-22T05:43:48;14.97;;;7.83;;
20559;SDS011;10438;51.454;6.718;2023-07-22T05:46:13;16.90;;;8.43;;
20559;SDS011;10438;51.454;6.718;2023-07-22T05:48:39;16.83;;;8.23;;
20559;SDS011;10438;51.454;6.718;2023-07-22T05:51:04;17.37;;;8.30;;
20559;SDS011;10438;51.454;6.718;2023-07-22T05:53:31;14.10;;;8.33;;
20559;SDS011;10438;51.454;6.718;2023-07-22T05:55:57;22.23;;;8.30;;
20559;SDS011;10438;51.454;6.718;2023-07-22T05:58:23;15.03;;;7.93;;
20559;SDS011;10438;51.454;6.718;2023-07-22T06:00:48;19.47;;;8.60;;
20559;SDS011;10438;51.454;6.718;2023-07-22T06:03:14;17.17;;;8.37;;
20559;SDS011;10438;51.454;6.718;2023-07-22T06:05:39;15.40;;;8.03;;
20559;SDS011;10438;51.454;6.718;2023-07-22T06:08:05;17.43;;;8.60;;
20559;SDS011;10438;51.454;6.718;2023-07-22T06:10:31;16.90;;;8.53;;
20559;SDS011;10438;51.454;6.718;2023-07-22T06:12:57;15.67;;;8.73;;
20559;SDS011;10438;51.454;6.718;2023-07-22T06:15:22;18.40;;;9.50;;
20559;SDS011;10438;51.454;6.718;2023-07-22T06:17:48;18.88;;;8.68;;
20559;SDS011;10438;51.454;6.718;2023-07-22T06:20:13;15.23;;;8.50;;
20559;SDS011;10438;51.454;6.718;2023-07-22T06:22:39;19.63;;;8.75;;
20559;SDS011;10438;51.454;6.718;2023-07-22T06:25:05;16.07;;;7.93;;
20559;SDS011;10438;51.454;6.718;2023-07-22T06:27:31;15.20;;;8.65;;
20559;SDS011;10438;51.454;6.718;2023-07-22T06:29:57;15.67;;;8.50;;
20559;SDS011;10438;51.454;6.718;2023-07-22T06:32:23;17.67;;;8.32;;
20559;SDS011;10438;51.454;6.718;2023-07-22T06:34:49;17.40;;;8.68;;
20559;SDS011;10438;51.454;6.718;2023-07-22T06:37:14;13.93;;;7.13;;
20559;SDS011;10438;51.454;6.718;2023-07-22T06:39:40;17.33;;;8.13;;
20559;SDS011;10438;51.454;6.718;2023-07-22T06:42:05;13.35;;;8.25;;
20559;SDS011;10438;51.454;6.718;2023-07-22T06:44:31;18.50;;;8.43;;
20559;SDS011;10438;51.454;6.718;2023-07-22T06:46:56;14.50;;;8.55;;
20559;SDS011;10438;51.454;6.718;2023-07-22T06:49:22;16.35;;;8.98;;
20559;SDS011;10438;51.454;6.718;2023-07-22T06:51:48;18.73;;;8.30;;
20559;SDS011;10438;51.454;6.718;2023-07-22T06:54:14;20.42;;;8.10;;
20559;SDS011;10438;51.454;6.718;2023-07-22T06:56:39;17.92;;;7.88;;
20559;SDS011;10438;51.454;6.718;2023-07-22T06:59:05;13.18;;;8.18;;
20559;SDS011;10438;51.454;6.718;2023-07-22T07:01:30;15.90;;;7.65;;
20559;SDS011;10438;51.454;6.718;2023-07-22T07:03:56;15.55;;;8.23;;
20559;SDS011;10438;51.454;6.718;2023-07-22T07:06:21;15.88;;;7.35;;
20559;SDS011;10438;51.454;6.718;2023-07-22T07:08:47;14.32;;;8.45;;
20559;SDS011;10438;51.454;6.718;2023-07-22T07:11:13;16.77;;;7.90;;
20559;SDS011;10438;51.454;6.718;2023-07-22T07:13:39;16.15;;;8.05;;
20559;SDS011;10438;51.454;6.718;2023-07-22T07:16:27;13.57;;;7.85;;
20559;SDS011;10438;51.454;6.718;2023-07-22T07:18:56;16.15;;;7.68;;
20559;SDS011;10438;51.454;6.718;2023-07-22T07:21:22;17.40;;;8.27;;
20559;SDS011;10438;51.454;6.718;2023-07-22T07:23:48;14.38;;;7.57;;
20559;SDS011;10438;51.454;6.718;2023-07-22T07:26:14;14.43;;;7.85;;
20559;SDS011;10438;51.454;6.718;2023-07-22T07:28:40;14.48;;;7.95;;
20559;SDS011;10438;51.454;6.718;2023-07-22T07:31:06;15.23;;;7.32;;
20559;SDS011;10438;51.454;6.718;2023-07-22T07:33:32;15.57;;;8.32;;
20559;SDS011;10438;51.454;6.718;2023-07-22T07:35:58;18.60;;;7.63;;
20559;SDS011;10438;51.454;6.718;2023-07-22T07:38:24;13.52;;;7.60;;
20559;SDS011;10438;51.454;6.718;2023-07-22T07:40:53;14.98;;;7.50;;
20559;SDS011;10438;51.454;6.718;2023-07-22T07:43:20;13.10;;;7.50;;
20559;SDS011;10438;51.454;6.718;2023-07-22T07:45:46;12.63;;;7.40;;
20559;SDS011;10438;51.454;6.718;2023-07-22T07:48:11;15.95;;;7.18;;
20559;SDS011;10438;51.454;6.718;2023-07-22T07:50:37;19.50;;;7.68;;
20559;SDS011;10438;51.454;6.718;2023-07-22T07:53:02;14.50;;;8.02;;
20559;SDS011;10438;51.454;6.718;2023-07-22T07:55:28;14.55;;;7.63;;
20559;SDS011;10438;51.454;6.718;2023-07-22T07:57:54;12.07;;;7.35;;
20559;SDS011;10438;51.454;6.718;2023-07-22T08:00:19;14.82;;;7.70;;
20559;SDS011;10438;51.454;6.718;2023-07-22T08:02:48;16.92;;;7.93;;
20559;SDS011;10438;51.454;6.718;2023-07-22T08:05:14;13.30;;;7.45;;
20559;SDS011;10438;51.454;6.718;2023-07-22T08:07:41;12.00;;;6.90;;
20559;SDS011;10438;51.454;6.718;2023-07-22T08:10:06;11.98;;;6.53;;
20559;SDS011;10438;51.454;6.718;2023-07-22T08:12:32;11.95;;;6.88;;
20559;SDS011;10438;51.454;6.718;2023-07-22T08:14:58;14.82;;;6.93;;
20559;SDS011;10438;51.454;6.718;2023-07-22T08:17:24;13.15;;;6.80;;
20559;SDS011;10438;51.454;6.718;2023-07-22T08:19:50;14.35;;;7.60;;
20559;SDS011;10438;51.454;6.718;2023-07-22T08:22:16;13.82;;;6.60;;
20559;SDS011;10438;51.454;6.718;2023-07-22T08:24:42;10.88;;;6.13;;
20559;SDS011;10438;51.454;6.718;2023-07-22T08:27:08;11.55;;;6.60;;
20559;SDS011;10438;51.454;6.718;2023-07-22T08:29:34;10.88;;;6.25;;
20559;SDS011;10438;51.454;6.718;2023-07-22T08:31:59;12.57;;;6.43;;
20559;SDS011;10438;51.454;6.718;2023-07-22T08:34:25;11.38;;;6.45;;
20559;SDS011;10438;51.454;6.718;2023-07-22T08:36:51;12.75;;;6.30;;
20559;SDS011;10438;51.454;6.718;2023-07-22T08:39:17;14.23;;;6.70;;
20559;SDS011;10438;51.454;6.718;2023-07-22T08:41:45;10.88;;;5.90;;
20559;SDS011;10438;51.454;6.718;2023-07-22T08:44:17;12.15;;;6.05;;
20559;SDS011;10438;51.454;6.718;2023-07-22T08:46:45;10.75;;;5.78;;
20559;SDS011;10438;51.454;6.718;2023-07-22T08:49:12;12.65;;;5.78;;
20559;SDS011;10438;51.454;6.718;2023-07-22T08:51:38;8.57;;;5.10;;
20559;SDS011;10438;51.454;6.718;2023-07-22T08:54:04;8.68;;;5.72;;
20559;SDS011;10438;51.454;6.718;2023-07-22T08:56:31;9.90;;;5.78;;
20559;SDS011;10438;51.454;6.718;2023-07-22T08:58:57;10.10;;;5.47;;
20559;SDS011;10438;51.454;6.718;2023-07-22T09:01:23;8.38;;;5.07;;
20559;SDS011;10438;51.454;6.718;2023-07-22T09:03:49;9.73;;;5.63;;
20559;SDS011;10438;51.454;6.718;2023-07-22T09:06:18;11.70;;;5.30;;
20559;SDS011;10438;51.454;6.718;2023-07-22T09:08:45;10.27;;;4.60;;
20559;SDS011;10438;51.454;6.718;2023-07-22T09:11:10;8.45;;;4.45;;
20559;SDS011;10438;51.454;6.718;2023-07-22T09:13:36;8.93;;;5.13;;
20559;SDS011;10438;51.454;6.718;2023-07-22T09:16:04;12.70;;;5.32;;
20559;SDS011;10438;51.454;6.718;2023-07-22T09:18:34;8.48;;;4.90;;
20559;SDS011;10438;51.454;6.718;2023-07-22T09:20:59;8.30;;;4.13;;
20559;SDS011;10438;51.454;6.718;2023-07-22T09:23:32;7.85;;;4.22;;
20559;SDS011;10438;51.454;6.718;2023-07-22T09:26:11;10.93;;;4.05;;
20559;SDS011;10438;51.454;6.718;2023-07-22T09:28:47;11.23;;;4.57;;
20559;SDS011;10438;51.454;6.718;2023-07-22T09:31:17;7.80;;;4.15;;
20559;SDS011;10438;51.454;6.718;2023-07-22T09:33:45;8.40;;;4.05;;
20559;SDS011;10438;51.454;6.718;2023-07-22T09:36:10;8.68;;;3.95;;
20559;SDS011;10438;51.454;6.718;2023-07-22T09:38:37;8.98;;;4.10;;
20559;SDS011;10438;51.454;6.718;2023-07-22T09:41:02;8.68;;;3.65;;
20559;SDS011;10438;51.454;6.718;2023-07-22T09:43:29;5.95;;;3.45;;
20559;SDS011;10438;51.454;6.718;2023-07-22T09:45:55;8.68;;;4.20;;
20559;SDS011;10438;51.454;6.718;2023-07-22T09:48:21;10.45;;;4.00;;
20559;SDS011;10438;51.454;6.718;2023-07-22T09:50:56;10.48;;;3.50;;
20559;SDS011;10438;51.454;6.718;2023-07-22T09:53:23;8.00;;;3.60;;
20559;SDS011;10438;51.454;6.718;2023-07-22T09:55:48;8.35;;;3.85;;
20559;SDS011;10438;51.454;6.718;2023-07-22T09:58:17;8.55;;;3.45;;
20559;SDS011;10438;51.454;6.718;2023-07-22T10:00:47;7.82;;;3.60;;
20559;SDS011;10438;51.454;6.718;2023-07-22T10:03:15;10.82;;;5.28;;
20559;SDS011;10438;51.454;6.718;2023-07-22T10:05:42;5.97;;;3.65;;
20559;SDS011;10438;51.454;6.718;2023-07-22T10:08:11;11.05;;;4.20;;
20559;SDS011;10438;51.454;6.718;2023-07-22T10:10:39;7.45;;;3.88;;
20559;SDS011;10438;51.454;6.718;2023-07-22T10:13:07;7.18;;;3.13;;
20559;SDS011;10438;51.454;6.718;2023-07-22T10:15:34;7.32;;;3.42;;
20559;SDS011;10438;51.454;6.718;2023-07-22T10:18:00;8.05;;;3.60;;
20559;SDS011;10438;51.454;6.718;2023-07-22T10:20:32;8.85;;;4.15;;
20559;SDS011;10438;51.454;6.718;2023-07-22T10:23:01;8.05;;;3.42;;
20559;SDS011;10438;51.454;6.718;2023-07-22T10:25:28;6.85;;;3.50;;
20559;SDS011;10438;51.454;6.718;2023-07-22T10:27:54;6.60;;;3.47;;
20559;SDS011;10438;51.454;6.718;2023-07-22T10:30:20;6.63;;;2.90;;
20559;SDS011;10438;51.454;6.718;2023-07-22T10:32:50;9.00;;;3.15;;
20559;SDS011;10438;51.454;6.718;2023-07-22T10:37:54;6.15;;;3.00;;
20559;SDS011;10438;51.454;6.718;2023-07-22T10:40:27;6.30;;;2.80;;
20559;SDS011;10438;51.454;6.718;2023-07-22T10:43:00;7.25;;;2.90;;
20559;SDS011;10438;51.454;6.718;2023-07-22T10:45:29;6.72;;;3.30;;
20559;SDS011;10438;51.454;6.718;2023-07-22T10:48:03;7.53;;;2.60;;
20559;SDS011;10438;51.454;6.718;2023-07-22T10:50:41;6.45;;;3.03;;
20559;SDS011;10438;51.454;6.718;2023-07-22T10:53:09;6.63;;;2.38;;
20559;SDS011;10438;51.454;6.718;2023-07-22T10:58:33;5.32;;;2.10;;
20559;SDS011;10438;51.454;6.718;2023-07-22T11:01:22;5.93;;;2.15;;
20559;SDS011;10438;51.454;6.718;2023-07-22T11:11:58;7.65;;;2.53;;
20559;SDS011;10438;51.454;6.718;2023-07-22T11:14:26;5.38;;;1.80;;
20559;SDS011;10438;51.454;6.718;2023-07-22T11:16:53;4.63;;;2.03;;
20559;SDS011;10438;51.454;6.718;2023-07-22T11:19:21;7.40;;;2.80;;
20559;SDS011;10438;51.454;6.718;2023-07-22T11:21:51;7.03;;;2.33;;
20559;SDS011;10438;51.454;6.718;2023-07-22T11:24:18;5.45;;;2.42;;
20559;SDS011;10438;51.454;6.718;2023-07-22T11:26:45;7.18;;;2.42;;
20559;SDS011;10438;51.454;6.718;2023-07-22T11:29:12;6.20;;;2.75;;
20559;SDS011;10438;51.454;6.718;2023-07-22T11:31:39;10.32;;;4.18;;
20559;SDS011;10438;51.454;6.718;2023-07-22T11:34:08;7.30;;;2.92;;
20559;SDS011;10438;51.454;6.718;2023-07-22T11:36:34;6.85;;;2.60;;
20559;SDS011;10438;51.454;6.718;2023-07-22T11:39:22;6.65;;;2.13;;
20559;SDS011;10438;51.454;6.718;2023-07-22T11:41:47;4.40;;;2.10;;
20559;SDS011;10438;51.454;6.718;2023-07-22T11:44:14;5.28;;;2.00;;
20559;SDS011;10438;51.454;6.718;2023-07-22T11:49:29;4.85;;;1.98;;
20559;SDS011;10438;51.454;6.718;2023-07-22T11:52:05;7.10;;;2.50;;
20559;SDS011;10438;51.454;6.718;2023-07-22T11:54:35;3.92;;;1.77;;
20559;SDS011;10438;51.454;6.718;2023-07-22T11:57:12;9.25;;;1.88;;
20559;SDS011;10438;51.454;6.718;2023-07-22T11:59:46;6.40;;;1.95;;
20559;SDS011;10438;51.454;6.718;2023-07-22T12:02:24;7.40;;;2.17;;
20559;SDS011;10438;51.454;6.718;2023-07-22T12:07:23;5.80;;;1.95;;
20559;SDS011;10438;51.454;6.718;2023-07-22T12:09:51;5.15;;;1.70;;
20559;SDS011;10438;51.454;6.718;2023-07-22T12:12:17;3.88;;;1.95;;
20559;SDS011;10438;51.454;6.718;2023-07-22T12:14:43;7.72;;;2.80;;
20559;SDS011;10438;51.454;6.718;2023-07-22T12:17:09;4.32;;;1.70;;
20559;SDS011;10438;51.454;6.718;2023-07-22T12:19:34;5.68;;;2.10;;
20559;SDS011;10438;51.454;6.718;2023-07-22T12:22:00;5.47;;;2.03;;
20559;SDS011;10438;51.454;6.718;2023-07-22T12:24:27;5.00;;;2.00;;
20559;SDS011;10438;51.454;6.718;2023-07-22T12:26:53;3.95;;;2.05;;
20559;SDS011;10438;51.454;6.718;2023-07-22T12:29:18;3.20;;;1.70;;
20559;SDS011;10438;51.454;6.718;2023-07-22T12:31:44;5.65;;;3.67;;
20559;SDS011;10438;51.454;6.718;2023-07-22T12:34:10;8.55;;;2.97;;
20559;SDS011;10438;51.454;6.718;2023-07-22T12:36:35;4.78;;;2.38;;
20559;SDS011;10438;51.454;6.718;2023-07-22T12:39:01;7.70;;;2.75;;
20559;SDS011;10438;51.454;6.718;2023-07-22T12:41:26;4.55;;;2.20;;
20559;SDS011;10438;51.454;6.718;2023-07-22T12:43:52;5.70;;;2.05;;
20559;SDS011;10438;51.454;6.718;2023-07-22T12:46:18;4.38;;;2.10;;
20559;SDS011;10438;51.454;6.718;2023-07-22T12:48:43;6.07;;;2.00;;
20559;SDS011;10438;51.454;6.718;2023-07-22T12:51:09;5.70;;;2.20;;
20559;SDS011;10438;51.454;6.718;2023-07-22T12:53:34;3.97;;;1.88;;
20559;SDS011;10438;51.454;6.718;2023-07-22T12:56:00;7.78;;;2.30;;
20559;SDS011;10438;51.454;6.718;2023-07-22T12:58:28;6.30;;;2.10;;
20559;SDS011;10438;51.454;6.718;2023-07-22T13:00:54;6.57;;;2.25;;
20559;SDS011;10438;51.454;6.718;2023-07-22T13:03:20;5.18;;;2.50;;
20559;SDS011;10438;51.454;6.718;2023-07-22T13:05:45;5.22;;;2.17;;
20559;SDS011;10438;51.454;6.718;2023-07-22T13:08:11;4.35;;;2.08;;
20559;SDS011;10438;51.454;6.718;2023-07-22T13:10:36;4.57;;;1.80;;
20559;SDS011;10438;51.454;6.718;2023-07-22T13:13:04;8.60;;;2.33;;
20559;SDS011;10438;51.454;6.718;2023-07-22T13:15:30;5.38;;;2.38;;
20559;SDS011;10438;51.454;6.718;2023-07-22T13:17:56;6.90;;;1.92;;
20559;SDS011;10438;51.454;6.718;2023-07-22T13:20:21;7.55;;;2.50;;
20559;SDS011;10438;51.454;6.718;2023-07-22T13:22:47;4.97;;;2.25;;
20559;SDS011;10438;51.454;6.718;2023-07-22T13:25:13;4.15;;;2.13;;
20559;SDS011;10438;51.454;6.718;2023-07-22T13:27:38;5.00;;;2.10;;
20559;SDS011;10438;51.454;6.718;2023-07-22T13:30:06;4.95;;;2.08;;
20559;SDS011;10438;51.454;6.718;2023-07-22T13:32:32;4.93;;;2.17;;
20559;SDS011;10438;51.454;6.718;2023-07-22T13:34:57;6.43;;;2.15;;
20559;SDS011;10438;51.454;6.718;2023-07-22T13:37:23;5.00;;;1.98;;
20559;SDS011;10438;51.454;6.718;2023-07-22T13:39:49;5.93;;;2.45;;
20559;SDS011;10438;51.454;6.718;2023-07-22T13:42:14;5.90;;;2.17;;
20559;SDS011;10438;51.454;6.718;2023-07-22T13:44:40;5.75;;;2.90;;
20559;SDS011;10438;51.454;6.718;2023-07-22T13:47:05;7.22;;;2.80;;
20559;SDS011;10438;51.454;6.718;2023-07-22T13:49:30;5.65;;;3.05;;
20559;SDS011;10438;51.454;6.718;2023-07-22T13:51:56;8.05;;;2.83;;
20559;SDS011;10438;51.454;6.718;2023-07-22T13:54:22;10.60;;;2.83;;
20559;SDS011;10438;51.454;6.718;2023-07-22T13:56:47;3.88;;;1.67;;
20559;SDS011;10438;51.454;6.718;2023-07-22T13:59:13;4.93;;;2.05;;
20559;SDS011;10438;51.454;6.718;2023-07-22T14:01:39;9.20;;;2.10;;
20559;SDS011;10438;51.454;6.718;2023-07-22T14:04:04;4.35;;;2.20;;
20559;SDS011;10438;51.454;6.718;2023-07-22T14:06:30;5.68;;;2.17;;
20559;SDS011;10438;51.454;6.718;2023-07-22T14:08:57;4.63;;;2.10;;
20559;SDS011;10438;51.454;6.718;2023-07-22T14:11:23;7.15;;;3.65;;
20559;SDS011;10438;51.454;6.718;2023-07-22T14:13:48;6.13;;;2.00;;
20559;SDS011;10438;51.454;6.718;2023-07-22T14:16:16;4.47;;;2.38;;
20559;SDS011;10438;51.454;6.718;2023-07-22T14:18:42;4.72;;;2.00;;
20559;SDS011;10438;51.454;6.718;2023-07-22T14:21:08;4.57;;;2.03;;
20559;SDS011;10438;51.454;6.718;2023-07-22T14:23:35;5.68;;;2.20;;
20559;SDS011;10438;51.454;6.718;2023-07-22T14:26:01;4.60;;;2.33;;
20559;SDS011;10438;51.454;6.718;2023-07-22T14:28:27;7.97;;;2.55;;
20559;SDS011;10438;51.454;6.718;2023-07-22T14:30:52;5.10;;;2.53;;
20559;SDS011;10438;51.454;6.718;2023-07-22T14:33:18;7.28;;;2.38;;
20559;SDS011;10438;51.454;6.718;2023-07-22T14:35:44;5.20;;;2.78;;
20559;SDS011;10438;51.454;6.718;2023-07-22T14:38:09;8.73;;;3.47;;
20559;SDS011;10438;51.454;6.718;2023-07-22T14:40:36;6.10;;;2.75;;
20559;SDS011;10438;51.454;6.718;2023-07-22T14:43:01;3.83;;;2.00;;
20559;SDS011;10438;51.454;6.718;2023-07-22T14:45:27;4.80;;;2.40;;
20559;SDS011;10438;51.454;6.718;2023-07-22T14:47:52;4.10;;;2.22;;
20559;SDS011;10438;51.454;6.718;2023-07-22T14:50:18;7.55;;;2.13;;
20559;SDS011;10438;51.454;6.718;2023-07-22T14:52:43;4.28;;;2.30;;